sensor_id;sensor_type;location;lat;lon;timestamp;P1;durP1;ratioP1;P2;durP2;ratioP2
80138;SDS011;69467;59.842;17.604;2023-12-20T00:06:08;9.25;;;2.20;;
80138;SDS011;69467;59.842;17.604;2023-12-20T00:08:35;2.20;;;0.87;;
80138;SDS011;69467;59.842;17.604;2023-12-20T00:15:50;10.60;;;1.03;;
80138;SDS011;69467;59.842;17.604;2023-12-20T00:20:41;4.90;;;1.20;;
80138;SDS011;69467;59.842;17.604;2023-12-20T00:27:58;3.43;;;1.03;;
80138;SDS011;69467;59.842;17.604;2023-12-20T00:32:49;4.15;;;1.50;;
80138;SDS011;69467;59.842;17.604;2023-12-20T00:40:05;4.30;;;1.43;;
80138;SDS011;69467;59.842;17.604;2023-12-20T00:44:57;10.80;;;1.33;;
80138;SDS011;69467;59.842;17.604;2023-12-20T00:47:23;5.50;;;0.60;;
80138;SDS011;69467;59.842;17.604;2023-12-20T00:52:13;3.40;;;1.80;;
80138;SDS011;69467;59.842;17.604;2023-12-20T00:59:29;2.47;;;0.37;;
80138;SDS011;69467;59.842;17.604;2023-12-20T01:04:20;3.25;;;0.80;;
80138;SDS011;69467;59.842;17.604;2023-12-20T01:09:11;1.60;;;0.67;;
80138;SDS011;69467;59.842;17.604;2023-12-20T01:14:02;4.25;;;0.75;;
80138;SDS011;69467;59.842;17.604;2023-12-20T01:18:52;4.63;;;1.58;;
80138;SDS011;69467;59.842;17.604;2023-12-20T01:21:18;4.30;;;1.07;;
80138;SDS011;69467;59.842;17.604;2023-12-20T01:26:08;3.45;;;1.63;;
80138;SDS011;69467;59.842;17.604;2023-12-20T01:28:34;10.13;;;1.47;;
80138;SDS011;69467;59.842;17.604;2023-12-20T01:33:25;6.85;;;0.80;;
80138;SDS011;69467;59.842;17.604;2023-12-20T01:38:15;11.70;;;1.52;;
80138;SDS011;69467;59.842;17.604;2023-12-20T01:40:43;3.50;;;0.90;;
80138;SDS011;69467;59.842;17.604;2023-12-20T01:45:35;3.03;;;1.03;;
80138;SDS011;69467;59.842;17.604;2023-12-20T01:48:01;15.10;;;1.50;;
80138;SDS011;69467;59.842;17.604;2023-12-20T01:50:28;6.97;;;0.63;;
80138;SDS011;69467;59.842;17.604;2023-12-20T01:52:58;3.37;;;1.63;;
80138;SDS011;69467;59.842;17.604;2023-12-20T01:55:26;2.47;;;1.10;;
80138;SDS011;69467;59.842;17.604;2023-12-20T01:57:54;9.97;;;2.67;;
80138;SDS011;69467;59.842;17.604;2023-12-20T02:00:20;6.23;;;1.00;;
80138;SDS011;69467;59.842;17.604;2023-12-20T02:02:49;4.57;;;0.60;;
80138;SDS011;69467;59.842;17.604;2023-12-20T02:05:15;5.07;;;0.63;;
80138;SDS011;69467;59.842;17.604;2023-12-20T02:10:07;6.60;;;1.20;;
80138;SDS011;69467;59.842;17.604;2023-12-20T02:14:58;6.20;;;0.67;;
80138;SDS011;69467;59.842;17.604;2023-12-20T02:27:05;9.40;;;1.52;;
80138;SDS011;69467;59.842;17.604;2023-12-20T02:29:32;4.90;;;1.63;;
80138;SDS011;69467;59.842;17.604;2023-12-20T02:31:58;11.20;;;1.73;;
80138;SDS011;69467;59.842;17.604;2023-12-20T02:39:14;6.77;;;1.07;;
80138;SDS011;69467;59.842;17.604;2023-12-20T02:44:05;11.30;;;1.23;;
80138;SDS011;69467;59.842;17.604;2023-12-20T02:48:55;10.97;;;3.13;;
80138;SDS011;69467;59.842;17.604;2023-12-20T02:53:46;9.70;;;2.20;;
80138;SDS011;69467;59.842;17.604;2023-12-20T02:58:37;3.95;;;1.50;;
80138;SDS011;69467;59.842;17.604;2023-12-20T03:01:02;4.13;;;1.30;;
80138;SDS011;69467;59.842;17.604;2023-12-20T03:05:53;6.17;;;1.20;;
80138;SDS011;69467;59.842;17.604;2023-12-20T03:13:09;3.40;;;1.03;;
80138;SDS011;69467;59.842;17.604;2023-12-20T03:18:00;3.30;;;0.87;;
80138;SDS011;69467;59.842;17.604;2023-12-20T03:22:53;10.43;;;1.77;;
80138;SDS011;69467;59.842;17.604;2023-12-20T03:30:09;5.93;;;1.00;;
80138;SDS011;69467;59.842;17.604;2023-12-20T03:35:00;5.77;;;1.50;;
80138;SDS011;69467;59.842;17.604;2023-12-20T03:42:16;10.03;;;1.93;;
80138;SDS011;69467;59.842;17.604;2023-12-20T03:44:41;7.23;;;1.63;;
80138;SDS011;69467;59.842;17.604;2023-12-20T03:51:57;10.60;;;2.20;;
80138;SDS011;69467;59.842;17.604;2023-12-20T03:59:14;14.40;;;2.33;;
80138;SDS011;69467;59.842;17.604;2023-12-20T04:04:08;6.50;;;1.30;;
80138;SDS011;69467;59.842;17.604;2023-12-20T04:11:23;8.37;;;1.47;;
80138;SDS011;69467;59.842;17.604;2023-12-20T04:13:49;16.80;;;2.57;;
80138;SDS011;69467;59.842;17.604;2023-12-20T04:16:14;11.90;;;3.60;;
80138;SDS011;69467;59.842;17.604;2023-12-20T04:18:40;8.17;;;2.17;;
80138;SDS011;69467;59.842;17.604;2023-12-20T04:23:31;23.53;;;3.33;;
80138;SDS011;69467;59.842;17.604;2023-12-20T04:28:22;5.28;;;1.83;;
80138;SDS011;69467;59.842;17.604;2023-12-20T04:35:38;14.97;;;2.80;;
80138;SDS011;69467;59.842;17.604;2023-12-20T04:38:05;13.53;;;2.77;;
80138;SDS011;69467;59.842;17.604;2023-12-20T04:45:21;12.47;;;3.30;;
80138;SDS011;69467;59.842;17.604;2023-12-20T04:47:48;24.80;;;4.03;;
80138;SDS011;69467;59.842;17.604;2023-12-20T04:55:05;20.50;;;3.53;;
80138;SDS011;69467;59.842;17.604;2023-12-20T04:59:55;23.57;;;3.13;;
80138;SDS011;69467;59.842;17.604;2023-12-20T05:07:11;21.65;;;5.00;;
80138;SDS011;69467;59.842;17.604;2023-12-20T05:14:27;14.20;;;3.10;;
80138;SDS011;69467;59.842;17.604;2023-12-20T05:19:18;9.65;;;3.53;;
80138;SDS011;69467;59.842;17.604;2023-12-20T05:21:43;12.33;;;4.53;;
80138;SDS011;69467;59.842;17.604;2023-12-20T05:28:59;53.30;;;9.00;;
80138;SDS011;69467;59.842;17.604;2023-12-20T05:33:50;19.38;;;5.35;;
80138;SDS011;69467;59.842;17.604;2023-12-20T05:41:06;24.48;;;5.75;;
80138;SDS011;69467;59.842;17.604;2023-12-20T05:48:23;95.70;;;9.13;;
80138;SDS011;69467;59.842;17.604;2023-12-20T05:55:39;63.63;;;8.97;;
80138;SDS011;69467;59.842;17.604;2023-12-20T06:00:30;23.10;;;4.07;;
80138;SDS011;69467;59.842;17.604;2023-12-20T06:05:21;65.47;;;7.30;;
80138;SDS011;69467;59.842;17.604;2023-12-20T06:10:13;39.87;;;6.20;;
80138;SDS011;69467;59.842;17.604;2023-12-20T06:12:39;96.40;;;9.87;;
80138;SDS011;69467;59.842;17.604;2023-12-20T06:15:06;15.67;;;3.77;;
80138;SDS011;69467;59.842;17.604;2023-12-20T06:19:57;98.07;;;9.23;;
80138;SDS011;69467;59.842;17.604;2023-12-20T06:24:48;66.10;;;9.20;;
80138;SDS011;69467;59.842;17.604;2023-12-20T06:27:13;80.83;;;9.97;;
80138;SDS011;69467;59.842;17.604;2023-12-20T06:32:05;45.07;;;8.67;;
80138;SDS011;69467;59.842;17.604;2023-12-20T06:39:21;153.57;;;12.63;;
80138;SDS011;69467;59.842;17.604;2023-12-20T06:46:37;59.97;;;7.33;;
80138;SDS011;69467;59.842;17.604;2023-12-20T06:53:53;9.60;;;2.28;;
80138;SDS011;69467;59.842;17.604;2023-12-20T06:58:44;16.23;;;2.70;;
80138;SDS011;69467;59.842;17.604;2023-12-20T07:03:39;15.27;;;3.50;;
80138;SDS011;69467;59.842;17.604;2023-12-20T07:06:05;16.10;;;3.60;;
80138;SDS011;69467;59.842;17.604;2023-12-20T07:13:21;132.75;;;11.15;;
80138;SDS011;69467;59.842;17.604;2023-12-20T07:15:47;104.20;;;8.83;;
80138;SDS011;69467;59.842;17.604;2023-12-20T07:18:13;60.43;;;4.93;;
80138;SDS011;69467;59.842;17.604;2023-12-20T07:23:04;14.77;;;2.87;;
80138;SDS011;69467;59.842;17.604;2023-12-20T07:27:57;43.23;;;6.00;;
80138;SDS011;69467;59.842;17.604;2023-12-20T07:32:48;32.87;;;4.20;;
80138;SDS011;69467;59.842;17.604;2023-12-20T07:37:40;30.07;;;5.07;;
80138;SDS011;69467;59.842;17.604;2023-12-20T07:42:31;10.23;;;2.03;;
80138;SDS011;69467;59.842;17.604;2023-12-20T07:49:48;93.32;;;9.15;;
80138;SDS011;69467;59.842;17.604;2023-12-20T07:52:14;60.53;;;8.40;;
80138;SDS011;69467;59.842;17.604;2023-12-20T07:59:30;16.97;;;3.57;;
80138;SDS011;69467;59.842;17.604;2023-12-20T08:04:21;40.28;;;5.30;;
80138;SDS011;69467;59.842;17.604;2023-12-20T08:09:12;110.10;;;11.60;;
80138;SDS011;69467;59.842;17.604;2023-12-20T08:14:03;22.75;;;5.18;;
80138;SDS011;69467;59.842;17.604;2023-12-20T08:18:53;56.05;;;5.47;;
80138;SDS011;69467;59.842;17.604;2023-12-20T08:23:47;94.03;;;11.13;;
80138;SDS011;69467;59.842;17.604;2023-12-20T08:28:38;15.60;;;3.53;;
80138;SDS011;69467;59.842;17.604;2023-12-20T08:33:28;8.68;;;3.30;;
80138;SDS011;69467;59.842;17.604;2023-12-20T08:38:19;94.93;;;10.37;;
80138;SDS011;69467;59.842;17.604;2023-12-20T08:43:10;45.37;;;7.00;;
80138;SDS011;69467;59.842;17.604;2023-12-20T08:52:52;21.23;;;4.93;;
80138;SDS011;69467;59.842;17.604;2023-12-20T08:57:44;8.13;;;3.63;;
80138;SDS011;69467;59.842;17.604;2023-12-20T09:02:35;15.23;;;6.05;;
80138;SDS011;69467;59.842;17.604;2023-12-20T09:07:27;8.63;;;3.77;;
80138;SDS011;69467;59.842;17.604;2023-12-20T09:09:55;11.83;;;4.27;;
80138;SDS011;69467;59.842;17.604;2023-12-20T09:14:46;7.00;;;3.97;;
80138;SDS011;69467;59.842;17.604;2023-12-20T09:17:12;8.73;;;4.40;;
80138;SDS011;69467;59.842;17.604;2023-12-20T09:22:04;5.73;;;3.37;;
80138;SDS011;69467;59.842;17.604;2023-12-20T09:24:31;6.00;;;2.70;;
80138;SDS011;69467;59.842;17.604;2023-12-20T09:29:22;4.25;;;2.53;;
80138;SDS011;69467;59.842;17.604;2023-12-20T09:34:14;7.63;;;3.53;;
80138;SDS011;69467;59.842;17.604;2023-12-20T09:36:40;8.83;;;2.93;;
80138;SDS011;69467;59.842;17.604;2023-12-20T09:39:11;8.20;;;4.00;;
80138;SDS011;69467;59.842;17.604;2023-12-20T09:41:43;7.23;;;3.50;;
80138;SDS011;69467;59.842;17.604;2023-12-20T09:44:13;7.63;;;3.97;;
80138;SDS011;69467;59.842;17.604;2023-12-20T09:46:42;9.70;;;3.73;;
80138;SDS011;69467;59.842;17.604;2023-12-20T09:49:10;8.33;;;4.30;;
80138;SDS011;69467;59.842;17.604;2023-12-20T09:51:37;7.23;;;3.50;;
80138;SDS011;69467;59.842;17.604;2023-12-20T09:56:29;18.60;;;7.93;;
80138;SDS011;69467;59.842;17.604;2023-12-20T09:58:55;4.67;;;3.20;;
80138;SDS011;69467;59.842;17.604;2023-12-20T10:03:47;12.27;;;4.50;;
80138;SDS011;69467;59.842;17.604;2023-12-20T10:08:38;8.65;;;2.95;;
80138;SDS011;69467;59.842;17.604;2023-12-20T10:13:30;8.77;;;5.07;;
80138;SDS011;69467;59.842;17.604;2023-12-20T10:18:20;9.70;;;4.18;;
80138;SDS011;69467;59.842;17.604;2023-12-20T10:25:38;15.40;;;7.27;;
80138;SDS011;69467;59.842;17.604;2023-12-20T10:28:11;9.43;;;5.13;;
80138;SDS011;69467;59.842;17.604;2023-12-20T10:30:38;17.60;;;5.30;;
80138;SDS011;69467;59.842;17.604;2023-12-20T10:33:07;16.00;;;7.77;;
80138;SDS011;69467;59.842;17.604;2023-12-20T10:35:33;10.97;;;5.07;;
80138;SDS011;69467;59.842;17.604;2023-12-20T10:38:01;11.80;;;5.60;;
80138;SDS011;69467;59.842;17.604;2023-12-20T10:40:29;13.87;;;5.70;;
80138;SDS011;69467;59.842;17.604;2023-12-20T10:45:21;11.67;;;6.57;;
80138;SDS011;69467;59.842;17.604;2023-12-20T10:47:47;13.10;;;7.00;;
80138;SDS011;69467;59.842;17.604;2023-12-20T10:50:15;13.70;;;6.87;;
80138;SDS011;69467;59.842;17.604;2023-12-20T10:55:06;15.17;;;6.87;;
80138;SDS011;69467;59.842;17.604;2023-12-20T10:59:59;10.07;;;6.00;;
80138;SDS011;69467;59.842;17.604;2023-12-20T11:02:29;13.43;;;6.53;;
80138;SDS011;69467;59.842;17.604;2023-12-20T11:07:59;13.10;;;6.33;;
80138;SDS011;69467;59.842;17.604;2023-12-20T11:10:41;12.98;;;6.55;;
80138;SDS011;69467;59.842;17.604;2023-12-20T11:15:43;10.77;;;6.97;;
80138;SDS011;69467;59.842;17.604;2023-12-20T11:20:35;14.47;;;7.30;;
80138;SDS011;69467;59.842;17.604;2023-12-20T11:23:02;14.80;;;7.23;;
80138;SDS011;69467;59.842;17.604;2023-12-20T11:28:06;21.03;;;9.60;;
80138;SDS011;69467;59.842;17.604;2023-12-20T11:30:46;14.90;;;7.00;;
80138;SDS011;69467;59.842;17.604;2023-12-20T11:33:14;11.50;;;5.43;;
80138;SDS011;69467;59.842;17.604;2023-12-20T11:35:41;18.50;;;7.63;;
80138;SDS011;69467;59.842;17.604;2023-12-20T11:40:35;21.87;;;7.73;;
80138;SDS011;69467;59.842;17.604;2023-12-20T11:43:02;17.30;;;8.20;;
80138;SDS011;69467;59.842;17.604;2023-12-20T11:45:28;14.53;;;7.83;;
80138;SDS011;69467;59.842;17.604;2023-12-20T11:52:46;18.30;;;7.13;;
80138;SDS011;69467;59.842;17.604;2023-12-20T11:57:37;18.90;;;7.93;;
80138;SDS011;69467;59.842;17.604;2023-12-20T12:02:29;15.77;;;7.60;;
80138;SDS011;69467;59.842;17.604;2023-12-20T12:04:55;16.53;;;6.07;;
80138;SDS011;69467;59.842;17.604;2023-12-20T12:07:21;19.20;;;6.70;;
80138;SDS011;69467;59.842;17.604;2023-12-20T12:12:12;21.10;;;8.33;;
80138;SDS011;69467;59.842;17.604;2023-12-20T12:17:09;14.37;;;6.77;;
80138;SDS011;69467;59.842;17.604;2023-12-20T12:19:38;14.60;;;6.30;;
80138;SDS011;69467;59.842;17.604;2023-12-20T12:22:07;32.57;;;16.37;;
80138;SDS011;69467;59.842;17.604;2023-12-20T12:24:38;18.63;;;8.70;;
80138;SDS011;69467;59.842;17.604;2023-12-20T12:27:07;11.50;;;6.03;;
80138;SDS011;69467;59.842;17.604;2023-12-20T12:31:58;13.63;;;7.40;;
80138;SDS011;69467;59.842;17.604;2023-12-20T12:34:27;16.13;;;7.60;;
80138;SDS011;69467;59.842;17.604;2023-12-20T12:36:53;10.77;;;6.17;;
80138;SDS011;69467;59.842;17.604;2023-12-20T12:44:09;12.63;;;6.45;;
80138;SDS011;69467;59.842;17.604;2023-12-20T12:49:00;14.00;;;7.45;;
80138;SDS011;69467;59.842;17.604;2023-12-20T12:58:42;13.47;;;7.23;;
80138;SDS011;69467;59.842;17.604;2023-12-20T13:01:07;16.90;;;7.00;;
80138;SDS011;69467;59.842;17.604;2023-12-20T13:06:00;11.37;;;6.43;;
80138;SDS011;69467;59.842;17.604;2023-12-20T13:10:51;13.00;;;7.77;;
80138;SDS011;69467;59.842;17.604;2023-12-20T13:18:07;9.40;;;5.80;;
80138;SDS011;69467;59.842;17.604;2023-12-20T13:22:58;7.00;;;4.40;;
80138;SDS011;69467;59.842;17.604;2023-12-20T13:27:49;7.03;;;5.50;;
80138;SDS011;69467;59.842;17.604;2023-12-20T13:32:41;11.93;;;6.27;;
80138;SDS011;69467;59.842;17.604;2023-12-20T13:37:32;8.73;;;5.57;;
80138;SDS011;69467;59.842;17.604;2023-12-20T13:42:22;12.45;;;6.30;;
80138;SDS011;69467;59.842;17.604;2023-12-20T13:47:13;10.98;;;5.40;;
80138;SDS011;69467;59.842;17.604;2023-12-20T13:52:04;4.97;;;3.53;;
80138;SDS011;69467;59.842;17.604;2023-12-20T13:56:55;8.07;;;5.03;;
80138;SDS011;69467;59.842;17.604;2023-12-20T13:59:22;9.47;;;5.00;;
80138;SDS011;69467;59.842;17.604;2023-12-20T14:04:15;13.00;;;4.33;;
80138;SDS011;69467;59.842;17.604;2023-12-20T14:09:06;10.18;;;4.05;;
80138;SDS011;69467;59.842;17.604;2023-12-20T14:13:56;6.15;;;3.42;;
80138;SDS011;69467;59.842;17.604;2023-12-20T14:16:23;9.93;;;4.80;;
80138;SDS011;69467;59.842;17.604;2023-12-20T14:18:49;9.20;;;5.33;;
80138;SDS011;69467;59.842;17.604;2023-12-20T14:21:16;8.20;;;4.13;;
80138;SDS011;69467;59.842;17.604;2023-12-20T14:26:07;6.43;;;4.07;;
80138;SDS011;69467;59.842;17.604;2023-12-20T14:30:58;14.02;;;6.88;;
80138;SDS011;69467;59.842;17.604;2023-12-20T14:35:49;12.48;;;3.80;;
80138;SDS011;69467;59.842;17.604;2023-12-20T14:43:06;10.20;;;5.40;;
80138;SDS011;69467;59.842;17.604;2023-12-20T14:50:23;5.43;;;3.33;;
80138;SDS011;69467;59.842;17.604;2023-12-20T14:57:40;8.07;;;4.45;;
80138;SDS011;69467;59.842;17.604;2023-12-20T15:02:31;10.05;;;4.85;;
80138;SDS011;69467;59.842;17.604;2023-12-20T15:07:22;13.50;;;6.30;;
80138;SDS011;69467;59.842;17.604;2023-12-20T15:12:14;10.93;;;4.07;;
80138;SDS011;69467;59.842;17.604;2023-12-20T15:17:05;8.00;;;5.00;;
80138;SDS011;69467;59.842;17.604;2023-12-20T15:21:56;5.63;;;4.78;;
80138;SDS011;69467;59.842;17.604;2023-12-20T15:26:53;4.33;;;2.77;;
80138;SDS011;69467;59.842;17.604;2023-12-20T15:31:45;6.03;;;3.50;;
80138;SDS011;69467;59.842;17.604;2023-12-20T15:34:12;5.53;;;4.00;;
80138;SDS011;69467;59.842;17.604;2023-12-20T15:36:38;8.77;;;4.37;;
80138;SDS011;69467;59.842;17.604;2023-12-20T15:41:29;6.37;;;3.53;;
80138;SDS011;69467;59.842;17.604;2023-12-20T15:48:46;7.03;;;4.28;;
80138;SDS011;69467;59.842;17.604;2023-12-20T15:53:37;5.97;;;3.40;;
80138;SDS011;69467;59.842;17.604;2023-12-20T15:58:29;6.85;;;3.95;;
80138;SDS011;69467;59.842;17.604;2023-12-20T16:00:55;11.73;;;4.20;;
80138;SDS011;69467;59.842;17.604;2023-12-20T16:05:46;5.55;;;3.78;;
80138;SDS011;69467;59.842;17.604;2023-12-20T16:10:36;5.28;;;3.97;;
80138;SDS011;69467;59.842;17.604;2023-12-20T16:15:27;6.95;;;4.00;;
80138;SDS011;69467;59.842;17.604;2023-12-20T16:20:18;8.10;;;4.30;;
80138;SDS011;69467;59.842;17.604;2023-12-20T16:27:35;8.00;;;3.33;;
80138;SDS011;69467;59.842;17.604;2023-12-20T16:32:26;8.63;;;3.87;;
80138;SDS011;69467;59.842;17.604;2023-12-20T16:37:17;12.23;;;5.32;;
80138;SDS011;69467;59.842;17.604;2023-12-20T16:42:08;5.77;;;3.47;;
80138;SDS011;69467;59.842;17.604;2023-12-20T16:46:59;6.28;;;4.97;;
80138;SDS011;69467;59.842;17.604;2023-12-20T16:54:16;8.90;;;4.13;;
80138;SDS011;69467;59.842;17.604;2023-12-20T16:56:42;10.37;;;5.17;;
80138;SDS011;69467;59.842;17.604;2023-12-20T17:01:33;11.47;;;5.53;;
80138;SDS011;69467;59.842;17.604;2023-12-20T17:06:23;8.35;;;6.32;;
80138;SDS011;69467;59.842;17.604;2023-12-20T17:08:51;9.77;;;5.37;;
80138;SDS011;69467;59.842;17.604;2023-12-20T17:13:42;8.43;;;5.30;;
80138;SDS011;69467;59.842;17.604;2023-12-20T17:16:09;5.57;;;3.73;;
80138;SDS011;69467;59.842;17.604;2023-12-20T17:18:36;11.63;;;4.77;;
80138;SDS011;69467;59.842;17.604;2023-12-20T17:21:03;8.57;;;4.67;;
80138;SDS011;69467;59.842;17.604;2023-12-20T17:23:29;7.93;;;4.97;;
80138;SDS011;69467;59.842;17.604;2023-12-20T17:28:20;7.28;;;4.15;;
80138;SDS011;69467;59.842;17.604;2023-12-20T17:33:11;5.47;;;3.83;;
80138;SDS011;69467;59.842;17.604;2023-12-20T17:38:01;6.13;;;4.13;;
80138;SDS011;69467;59.842;17.604;2023-12-20T17:42:52;5.75;;;4.22;;
80138;SDS011;69467;59.842;17.604;2023-12-20T17:45:18;9.23;;;4.83;;
80138;SDS011;69467;59.842;17.604;2023-12-20T17:52:34;9.05;;;4.00;;
80138;SDS011;69467;59.842;17.604;2023-12-20T17:59:51;10.67;;;4.27;;
80138;SDS011;69467;59.842;17.604;2023-12-20T18:04:42;9.30;;;5.03;;
80138;SDS011;69467;59.842;17.604;2023-12-20T18:09:33;11.32;;;4.80;;
80138;SDS011;69467;59.842;17.604;2023-12-20T18:14:24;11.88;;;6.65;;
80138;SDS011;69467;59.842;17.604;2023-12-20T18:21:42;16.40;;;5.13;;
80138;SDS011;69467;59.842;17.604;2023-12-20T18:26:32;11.37;;;6.23;;
80138;SDS011;69467;59.842;17.604;2023-12-20T18:29:01;13.83;;;7.30;;
80138;SDS011;69467;59.842;17.604;2023-12-20T18:31:27;8.83;;;4.70;;
80138;SDS011;69467;59.842;17.604;2023-12-20T18:41:10;7.20;;;4.87;;
80138;SDS011;69467;59.842;17.604;2023-12-20T18:43:39;7.63;;;5.63;;
80138;SDS011;69467;59.842;17.604;2023-12-20T18:48:30;11.37;;;5.57;;
80138;SDS011;69467;59.842;17.604;2023-12-20T18:53:21;14.00;;;5.97;;
80138;SDS011;69467;59.842;17.604;2023-12-20T18:58:11;15.35;;;7.22;;
80138;SDS011;69467;59.842;17.604;2023-12-20T19:00:38;18.00;;;7.77;;
80138;SDS011;69467;59.842;17.604;2023-12-20T19:05:29;13.27;;;6.77;;
80138;SDS011;69467;59.842;17.604;2023-12-20T19:12:45;14.67;;;6.23;;
80138;SDS011;69467;59.842;17.604;2023-12-20T19:17:36;13.68;;;6.30;;
80138;SDS011;69467;59.842;17.604;2023-12-20T19:22:29;15.37;;;7.90;;
80138;SDS011;69467;59.842;17.604;2023-12-20T19:24:56;15.50;;;7.47;;
80138;SDS011;69467;59.842;17.604;2023-12-20T19:27:24;15.80;;;7.80;;
80138;SDS011;69467;59.842;17.604;2023-12-20T19:32:15;13.03;;;7.53;;
80138;SDS011;69467;59.842;17.604;2023-12-20T19:37:05;20.40;;;7.47;;
80138;SDS011;69467;59.842;17.604;2023-12-20T19:41:56;14.57;;;6.60;;
80138;SDS011;69467;59.842;17.604;2023-12-20T19:46:47;16.00;;;5.63;;
80138;SDS011;69467;59.842;17.604;2023-12-20T19:49:14;12.77;;;7.03;;
80138;SDS011;69467;59.842;17.604;2023-12-20T19:56:30;14.50;;;7.93;;
80138;SDS011;69467;59.842;17.604;2023-12-20T20:01:21;14.80;;;7.65;;
80138;SDS011;69467;59.842;17.604;2023-12-20T20:08:37;10.43;;;5.63;;
80138;SDS011;69467;59.842;17.604;2023-12-20T20:13:28;17.67;;;8.63;;
80138;SDS011;69467;59.842;17.604;2023-12-20T20:18:19;12.30;;;7.30;;
80138;SDS011;69467;59.842;17.604;2023-12-20T20:23:10;15.33;;;5.80;;
80138;SDS011;69467;59.842;17.604;2023-12-20T20:28:00;19.15;;;6.50;;
80138;SDS011;69467;59.842;17.604;2023-12-20T20:35:17;16.38;;;7.68;;
80138;SDS011;69467;59.842;17.604;2023-12-20T20:37:43;18.37;;;9.13;;
80138;SDS011;69467;59.842;17.604;2023-12-20T20:42:36;16.83;;;7.43;;
80138;SDS011;69467;59.842;17.604;2023-12-20T20:47:27;22.13;;;7.90;;
80138;SDS011;69467;59.842;17.604;2023-12-20T20:52:19;12.57;;;6.33;;
80138;SDS011;69467;59.842;17.604;2023-12-20T20:57:09;16.50;;;7.20;;
80138;SDS011;69467;59.842;17.604;2023-12-20T21:04:27;16.00;;;6.20;;
80138;SDS011;69467;59.842;17.604;2023-12-20T21:11:44;11.37;;;5.73;;
80138;SDS011;69467;59.842;17.604;2023-12-20T21:16:35;7.25;;;4.35;;
80138;SDS011;69467;59.842;17.604;2023-12-20T21:21:27;8.67;;;3.93;;
80138;SDS011;69467;59.842;17.604;2023-12-20T21:26:17;4.25;;;2.65;;
80138;SDS011;69467;59.842;17.604;2023-12-20T21:31:08;3.20;;;2.30;;
80138;SDS011;69467;59.842;17.604;2023-12-20T21:35:59;3.72;;;2.67;;
80138;SDS011;69467;59.842;17.604;2023-12-20T21:43:16;6.07;;;3.73;;
80138;SDS011;69467;59.842;17.604;2023-12-20T21:48:07;3.90;;;2.22;;
80138;SDS011;69467;59.842;17.604;2023-12-20T21:53:01;3.83;;;3.40;;
80138;SDS011;69467;59.842;17.604;2023-12-20T22:00:17;5.03;;;2.50;;
80138;SDS011;69467;59.842;17.604;2023-12-20T22:05:08;4.20;;;2.53;;
80138;SDS011;69467;59.842;17.604;2023-12-20T22:09:59;3.73;;;3.10;;
80138;SDS011;69467;59.842;17.604;2023-12-20T22:14:50;2.88;;;1.85;;
80138;SDS011;69467;59.842;17.604;2023-12-20T22:19:41;2.70;;;1.88;;
80138;SDS011;69467;59.842;17.604;2023-12-20T22:24:32;2.42;;;1.70;;
80138;SDS011;69467;59.842;17.604;2023-12-20T22:29:25;1.37;;;1.20;;
80138;SDS011;69467;59.842;17.604;2023-12-20T22:31:53;1.93;;;1.50;;
80138;SDS011;69467;59.842;17.604;2023-12-20T22:34:20;1.93;;;1.50;;
80138;SDS011;69467;59.842;17.604;2023-12-20T22:41:36;1.10;;;0.63;;
80138;SDS011;69467;59.842;17.604;2023-12-20T22:44:03;3.20;;;0.83;;
80138;SDS011;69467;59.842;17.604;2023-12-20T22:51:21;2.70;;;1.83;;
80138;SDS011;69467;59.842;17.604;2023-12-20T22:56:11;1.38;;;0.57;;
80138;SDS011;69467;59.842;17.604;2023-12-20T23:01:02;6.93;;;1.85;;
80138;SDS011;69467;59.842;17.604;2023-12-20T23:08:18;0.65;;;0.30;;
80138;SDS011;69467;59.842;17.604;2023-12-20T23:13:09;0.82;;;0.55;;
80138;SDS011;69467;59.842;17.604;2023-12-20T23:17:59;4.07;;;0.60;;
80138;SDS011;69467;59.842;17.604;2023-12-20T23:22:50;0.67;;;0.43;;
80138;SDS011;69467;59.842;17.604;2023-12-20T23:30:07;0.93;;;0.28;;
80138;SDS011;69467;59.842;17.604;2023-12-20T23:32:33;1.50;;;0.60;;
80138;SDS011;69467;59.842;17.604;2023-12-20T23:39:49;1.98;;;0.63;;
80138;SDS011;69467;59.842;17.604;2023-12-20T23:44:42;1.47;;;0.43;;
80138;SDS011;69467;59.842;17.604;2023-12-20T23:49:33;0.70;;;0.47;;
80138;SDS011;69467;59.842;17.604;2023-12-20T23:54:24;0.85;;;0.50;;
80138;SDS011;69467;59.842;17.604;2023-12-20T23:59:14;0.37;;;0.20;;
